Amo, Colorado
Current Conditions -  °F | °C
As of 3:54 AM on Friday 19 Dec 2014 (Local Time) from KFLY Reporting Station
Overcast Overcast  
Wind Chill: -3°   Ceiling: 800
Heat Index: -3°   Visibility: 10mi
Dew Point: -4°   Wind: 0mph
Humidity: 94%   Direction: NA
Pressure: 30.06"   Gusts: NA
Location:  39.0051°N, 104.503°W
Report Text: KFLY 191054Z AUTO 00000KT 10SM OVC008 M03/M04 A3006 RMK AO2 T10291038
Loading
Personal Weather Stations






























Interactive Weather Map New forecast layout! Learn more

10-Day Weather Forecast

Advertisements
Track Severe Weather on mobile